createdAt,value
2018-09-05T00:02:08.803Z,11.00
2018-09-05T00:04:35.868Z,10.90
2018-09-05T00:07:02.814Z,11.00
2018-09-05T00:09:29.831Z,10.93
2018-09-05T00:11:57.220Z,10.83
2018-09-05T00:14:24.221Z,10.70
2018-09-05T00:16:51.199Z,11.80
2018-09-05T00:19:18.544Z,11.00
2018-09-05T00:21:45.610Z,11.50
2018-09-05T00:24:12.596Z,11.60
2018-09-05T00:26:39.577Z,11.90
2018-09-05T00:29:06.571Z,11.73
2018-09-05T00:31:33.529Z,11.80
2018-09-05T00:34:00.509Z,11.60
2018-09-05T00:36:27.450Z,11.80
2018-09-05T00:38:54.380Z,12.83
2018-09-05T00:41:21.628Z,13.50
2018-09-05T00:43:48.555Z,12.40
2018-09-05T00:46:15.540Z,11.30
2018-09-05T00:48:42.547Z,13.20
2018-09-05T00:51:09.483Z,12.67
2018-09-05T00:53:36.458Z,13.13
2018-09-05T00:56:03.993Z,12.33
2018-09-05T00:58:31.042Z,12.83
2018-09-05T01:00:57.993Z,13.10
2018-09-05T01:03:25.298Z,13.83
2018-09-05T01:05:52.265Z,13.17
2018-09-05T01:08:19.509Z,14.40
2018-09-05T01:10:46.642Z,13.17
2018-09-05T01:13:13.576Z,13.57
2018-09-05T01:15:40.964Z,14.20
2018-09-05T01:18:08.317Z,14.33
2018-09-05T01:20:35.365Z,13.73
2018-09-05T01:23:02.318Z,14.13
2018-09-05T01:25:29.788Z,14.03
2018-09-05T01:27:56.775Z,14.67
2018-09-05T01:30:26.248Z,14.20
2018-09-05T01:32:53.519Z,14.10
2018-09-05T01:35:20.558Z,14.20
2018-09-05T01:37:47.513Z,14.13
2018-09-05T01:40:14.949Z,14.30
2018-09-05T01:42:41.927Z,15.10
2018-09-05T01:45:08.891Z,14.70
2018-09-05T01:47:36.125Z,14.33
2018-09-05T01:50:03.082Z,15.30
2018-09-05T01:52:30.076Z,16.20
2018-09-05T01:54:57.431Z,15.00
2018-09-05T01:57:24.443Z,15.10
2018-09-05T01:59:51.432Z,15.67
2018-09-05T02:02:18.753Z,16.83
2018-09-05T02:04:45.712Z,15.67
2018-09-05T02:07:40.702Z,16.70
2018-09-05T02:10:07.649Z,16.50
2018-09-05T02:12:34.760Z,16.20
2018-09-05T02:15:01.801Z,16.67
2018-09-05T02:17:28.778Z,16.83
2018-09-05T02:19:55.759Z,17.23
2018-09-05T02:22:22.773Z,17.50
2018-09-05T02:24:49.718Z,17.67
2018-09-05T02:27:16.698Z,17.87
2018-09-05T02:29:43.984Z,18.40
2018-09-05T02:32:11.005Z,19.50
2018-09-05T02:34:37.960Z,21.10
2018-09-05T02:37:04.990Z,21.07
2018-09-05T02:39:31.986Z,20.90
2018-09-05T02:41:58.982Z,20.67
2018-09-05T02:44:26.345Z,21.50
2018-09-05T02:46:53.322Z,23.13
2018-09-05T02:49:20.376Z,23.03
2018-09-05T02:51:47.631Z,22.60
2018-09-05T02:54:14.659Z,25.10
2018-09-05T02:56:41.706Z,23.80
2018-09-05T02:59:09.219Z,26.63
2018-09-05T03:01:36.211Z,25.43
2018-09-05T03:04:03.183Z,25.17
2018-09-05T03:06:30.447Z,26.40
2018-09-05T03:08:57.413Z,25.40
2018-09-05T03:11:24.333Z,24.67
2018-09-05T03:13:51.298Z,26.90
2018-09-05T03:16:18.257Z,25.90
2018-09-05T03:18:45.250Z,26.93
2018-09-05T03:21:12.313Z,27.20
2018-09-05T03:23:39.323Z,26.50
2018-09-05T03:26:06.211Z,27.40
2018-09-05T03:28:33.274Z,25.87
2018-09-05T03:31:00.201Z,28.77
2018-09-05T03:33:27.213Z,27.40
2018-09-05T03:35:54.507Z,27.30
2018-09-05T03:38:21.530Z,27.30
2018-09-05T03:40:48.535Z,27.43
2018-09-05T03:43:15.537Z,26.80
2018-09-05T03:45:42.515Z,27.00
2018-09-05T03:48:09.469Z,28.00
2018-09-05T03:50:36.853Z,26.53
2018-09-05T03:53:03.848Z,33.47
2018-09-05T03:55:30.811Z,30.17
2018-09-05T03:57:58.031Z,29.27
2018-09-05T04:00:25.072Z,30.00
2018-09-05T04:02:52.048Z,29.53
2018-09-05T04:05:19.367Z,32.60
2018-09-05T04:07:46.379Z,30.20
2018-09-05T04:10:13.351Z,31.23
2018-09-05T04:12:41.282Z,28.47
2018-09-05T04:15:08.922Z,30.70
2018-09-05T04:17:35.929Z,30.97
2018-09-05T04:20:03.241Z,28.63
2018-09-05T04:22:30.518Z,33.30
2018-09-05T04:24:57.541Z,31.50
2018-09-05T04:27:24.865Z,28.40
2018-09-05T04:29:51.881Z,33.23
2018-09-05T04:32:18.766Z,33.87
2018-09-05T04:34:46.084Z,34.10
2018-09-05T04:37:13.041Z,35.33
2018-09-05T04:39:40.041Z,32.97
2018-09-05T04:42:07.467Z,37.00
2018-09-05T04:44:34.485Z,33.97
2018-09-05T04:47:01.461Z,35.73
2018-09-05T04:49:32.286Z,37.27
2018-09-05T04:51:59.300Z,35.87
2018-09-05T04:54:26.279Z,34.93
2018-09-05T04:56:53.906Z,35.00
2018-09-05T04:59:20.915Z,33.50
2018-09-05T05:01:47.930Z,36.80
2018-09-05T05:04:15.154Z,35.00
2018-09-05T05:06:42.123Z,32.30
2018-09-05T05:09:10.626Z,31.63
2018-09-05T05:11:38.133Z,32.23
2018-09-05T05:14:05.347Z,30.77
2018-09-05T05:16:32.343Z,30.60
2018-09-05T05:18:59.597Z,27.90
2018-09-05T05:21:26.560Z,26.43
2018-09-05T05:23:53.561Z,30.30
2018-09-05T05:26:20.619Z,30.50
2018-09-05T05:28:47.670Z,27.00
2018-09-05T05:31:14.663Z,25.80
2018-09-05T05:33:41.653Z,26.27
2018-09-05T05:36:08.667Z,24.30
2018-09-05T05:38:35.674Z,28.47
2018-09-05T05:41:02.960Z,24.63
2018-09-05T05:43:29.897Z,23.90
2018-09-05T05:45:56.915Z,21.60
2018-09-05T05:48:24.076Z,23.80
2018-09-05T05:50:51.023Z,24.57
2018-09-05T05:53:17.969Z,28.97
2018-09-05T05:55:45.120Z,25.50
2018-09-05T05:58:12.132Z,25.50
2018-09-05T06:00:39.140Z,22.90
2018-09-05T06:03:06.108Z,21.40
2018-09-05T06:05:33.074Z,23.20
2018-09-05T06:08:00.117Z,21.57
2018-09-05T06:10:27.591Z,20.70
2018-09-05T06:12:56.340Z,21.00
2018-09-05T06:15:23.939Z,20.00
2018-09-05T06:17:50.940Z,19.60
2018-09-05T06:20:17.906Z,19.37
2018-09-05T06:22:45.025Z,18.60
2018-09-05T06:25:12.268Z,21.90
2018-09-05T06:27:39.277Z,19.23
2018-09-05T06:30:06.238Z,20.40
2018-09-05T06:32:33.513Z,19.33
2018-09-05T06:35:00.497Z,20.30
2018-09-05T06:37:27.504Z,18.67
2018-09-05T06:39:54.568Z,18.37
2018-09-05T06:42:21.649Z,18.80
2018-09-05T06:44:48.712Z,18.40
2018-09-05T06:47:16.012Z,20.50
2018-09-05T06:49:42.958Z,17.67
2018-09-05T06:52:09.944Z,17.50
2018-09-05T06:54:37.217Z,18.10
2018-09-05T06:57:04.142Z,16.87
2018-09-05T06:59:31.077Z,17.37
2018-09-05T07:01:58.083Z,17.73
2018-09-05T07:04:25.107Z,18.43
2018-09-05T07:06:52.102Z,15.60
2018-09-05T07:09:19.072Z,15.93
2018-09-05T07:11:46.074Z,14.70
2018-09-05T07:14:13.127Z,14.33
2018-09-05T07:16:40.337Z,13.57
2018-09-05T07:19:08.889Z,14.10
2018-09-05T07:21:36.457Z,13.93
2018-09-05T07:24:05.073Z,13.47
2018-09-05T07:26:32.078Z,15.47
2018-09-05T07:28:59.042Z,13.10
2018-09-05T07:31:26.168Z,17.10
2018-09-05T07:33:53.222Z,14.40
2018-09-05T07:36:20.308Z,24.70
2018-09-05T07:38:47.668Z,11.83
2018-09-05T07:41:14.793Z,11.00
2018-09-05T07:43:41.895Z,11.50
2018-09-05T07:46:08.969Z,10.60
2018-09-05T07:48:36.150Z,11.63
2018-09-05T07:51:03.357Z,12.40
2018-09-05T07:53:30.664Z,11.03
2018-09-05T07:55:57.866Z,12.60
2018-09-05T07:58:24.995Z,11.10
2018-09-05T08:00:52.132Z,10.73
2018-09-05T08:03:19.279Z,10.53
2018-09-05T08:05:46.390Z,11.77
2018-09-05T08:08:13.749Z,10.43
2018-09-05T08:10:40.891Z,10.90
2018-09-05T08:13:07.979Z,10.63
2018-09-05T08:15:35.053Z,14.40
2018-09-05T08:18:02.179Z,11.97
2018-09-05T08:20:29.221Z,11.53
2018-09-05T08:22:56.595Z,10.80
2018-09-05T08:25:23.640Z,14.90
2018-09-05T08:27:50.702Z,11.03
2018-09-05T08:30:18.153Z,10.67
2018-09-05T08:32:45.201Z,9.73
2018-09-05T08:35:12.419Z,9.77
2018-09-05T08:37:39.411Z,9.77
2018-09-05T08:40:06.541Z,9.10
2018-09-05T08:44:03.768Z,10.07
2018-09-05T08:46:30.752Z,11.40
2018-09-05T08:48:57.831Z,9.03
2018-09-05T08:51:25.295Z,9.17
2018-09-05T08:53:52.336Z,9.33
2018-09-05T08:56:19.496Z,9.10
2018-09-05T08:58:46.826Z,8.67
2018-09-05T09:01:13.821Z,9.27
2018-09-05T09:03:40.877Z,8.57
2018-09-05T09:06:08.039Z,9.80
2018-09-05T09:08:35.129Z,12.40
2018-09-05T09:11:02.213Z,10.27
2018-09-05T09:13:29.610Z,9.13
2018-09-05T09:15:56.641Z,11.30
2018-09-05T09:18:23.685Z,9.80
2018-09-05T09:20:53.082Z,8.43
2018-09-05T09:23:20.915Z,9.00
2018-09-05T09:25:48.421Z,11.73
2018-09-05T09:28:15.952Z,8.73
2018-09-05T09:30:43.213Z,9.77
2018-09-05T09:33:10.276Z,8.57
2018-09-05T09:35:37.418Z,6.13
2018-09-05T09:38:04.457Z,5.73
2018-09-05T09:40:31.566Z,6.40
2018-09-05T09:42:59.030Z,5.60
2018-09-05T09:45:26.162Z,6.67
2018-09-05T09:47:53.324Z,6.63
2018-09-05T09:50:20.792Z,6.33
2018-09-05T09:52:47.889Z,7.37
2018-09-05T09:55:15.004Z,9.83
2018-09-05T09:57:42.104Z,6.50
2018-09-05T10:00:10.157Z,6.00
2018-09-05T10:02:43.545Z,6.00
2018-09-05T10:05:16.493Z,6.53
2018-09-05T10:07:49.873Z,6.83
2018-09-05T10:10:23.031Z,6.90
2018-09-05T10:12:51.429Z,6.70
2018-09-05T10:15:24.379Z,7.57
2018-09-05T10:17:57.597Z,6.33
2018-09-05T10:20:24.664Z,6.90
2018-09-05T10:22:51.818Z,6.30
2018-09-05T10:25:19.199Z,7.00
2018-09-05T10:27:46.298Z,6.73
2018-09-05T10:30:13.362Z,7.10
2018-09-05T10:32:40.681Z,6.57
2018-09-05T10:35:07.791Z,5.93
2018-09-05T10:37:34.870Z,6.73
2018-09-05T10:40:02.209Z,6.90
2018-09-05T10:42:29.309Z,6.40
2018-09-05T10:44:56.383Z,6.50
2018-09-05T10:47:23.813Z,6.23
2018-09-05T10:49:50.836Z,7.07
2018-09-05T10:52:18.035Z,6.50
2018-09-05T10:54:45.131Z,6.57
2018-09-05T10:57:12.232Z,7.20
2018-09-05T10:59:39.292Z,8.63
2018-09-05T11:02:06.713Z,7.77
2018-09-05T11:04:33.793Z,8.00
2018-09-05T11:07:00.901Z,7.43
2018-09-05T11:09:28.108Z,7.07
2018-09-05T11:11:55.201Z,6.23
2018-09-05T11:14:22.258Z,7.47
2018-09-05T11:16:49.715Z,7.97
2018-09-05T11:19:16.751Z,6.90
2018-09-05T11:21:43.814Z,6.40
2018-09-05T11:24:11.243Z,7.30
2018-09-05T11:26:38.429Z,10.23
2018-09-05T11:29:05.588Z,7.60
2018-09-05T11:31:32.689Z,7.00
2018-09-05T11:33:59.783Z,8.10
2018-09-05T11:36:26.824Z,7.70
2018-09-05T11:38:53.900Z,8.53
2018-09-05T11:41:21.358Z,6.43
2018-09-05T11:43:51.446Z,12.23
2018-09-05T11:46:18.720Z,8.20
2018-09-05T11:48:45.777Z,9.43
2018-09-05T11:51:12.850Z,7.90
2018-09-05T11:53:40.253Z,8.20
2018-09-05T11:56:07.318Z,7.33
2018-09-05T11:58:34.392Z,8.10
2018-09-05T12:01:01.510Z,9.13
2018-09-05T12:03:28.584Z,17.60
2018-09-05T12:05:55.654Z,8.00
2018-09-05T12:08:23.075Z,6.60
2018-09-05T12:10:50.174Z,6.57
2018-09-05T12:13:17.394Z,8.80
2018-09-05T12:15:44.513Z,6.80
2018-09-05T12:18:11.593Z,7.10
2018-09-05T12:20:38.674Z,7.17
2018-09-05T12:23:06.662Z,6.40
2018-09-05T12:25:33.733Z,6.80
2018-09-05T12:28:00.863Z,6.30
2018-09-05T12:30:28.378Z,6.50
2018-09-05T12:32:56.812Z,5.73
2018-09-05T12:35:23.968Z,6.73
2018-09-05T12:37:51.360Z,9.70
2018-09-05T12:40:18.467Z,5.70
2018-09-05T12:42:45.570Z,7.93
2018-09-05T12:45:12.715Z,5.80
2018-09-05T12:47:39.761Z,5.53
2018-09-05T12:50:06.832Z,5.50
2018-09-05T12:52:33.967Z,6.93
2018-09-05T12:55:01.025Z,6.03
2018-09-05T12:57:28.075Z,5.60
2018-09-05T12:59:55.198Z,8.40
2018-09-05T13:02:22.273Z,6.43
2018-09-05T13:04:49.447Z,5.80
2018-09-05T13:07:16.822Z,5.90
2018-09-05T13:09:43.885Z,5.70
2018-09-05T13:12:10.985Z,7.97
2018-09-05T13:14:38.509Z,6.50
2018-09-05T13:17:05.528Z,8.20
2018-09-05T13:19:32.752Z,7.73
2018-09-05T13:21:59.829Z,6.03
2018-09-05T13:24:26.897Z,5.87
2018-09-05T13:26:53.979Z,5.63
2018-09-05T13:29:21.317Z,6.27
2018-09-05T13:31:48.385Z,8.33
2018-09-05T13:34:15.450Z,6.30
2018-09-05T13:36:42.829Z,6.50
2018-09-05T13:39:10.870Z,6.30
2018-09-05T13:41:37.904Z,5.80
2018-09-05T13:44:05.061Z,6.30
2018-09-05T13:46:32.383Z,5.40
2018-09-05T13:48:59.460Z,5.13
2018-09-05T13:51:26.582Z,5.40
2018-09-05T13:53:53.648Z,6.50
2018-09-05T13:56:20.738Z,9.17
2018-09-05T13:58:48.093Z,7.13
2018-09-05T14:01:15.154Z,6.20
2018-09-05T14:03:42.224Z,7.53
2018-09-05T14:06:09.632Z,5.93
2018-09-05T14:08:36.728Z,7.70
2018-09-05T14:11:03.785Z,6.03
2018-09-05T14:13:31.449Z,7.80
2018-09-05T14:15:58.437Z,6.90
2018-09-05T14:18:25.568Z,7.80
2018-09-05T14:20:52.890Z,9.03
2018-09-05T14:23:19.965Z,6.47
2018-09-05T14:25:47.090Z,7.07
2018-09-05T14:28:14.317Z,8.10
2018-09-05T14:30:41.413Z,6.23
2018-09-05T14:33:08.623Z,7.97
2018-09-05T14:35:36.141Z,10.00
2018-09-05T14:38:03.213Z,8.47
2018-09-05T14:40:30.341Z,6.60
2018-09-05T14:42:57.462Z,6.20
2018-09-05T14:45:24.634Z,8.20
2018-09-05T14:47:51.716Z,6.70
2018-09-05T14:50:18.944Z,5.47
2018-09-05T14:52:46.061Z,6.30
2018-09-05T14:55:13.204Z,7.13
2018-09-05T14:57:40.627Z,9.60
2018-09-05T15:00:07.733Z,6.23
2018-09-05T15:02:34.785Z,6.00
2018-09-05T15:05:02.249Z,7.07
2018-09-05T15:07:29.341Z,6.20
2018-09-05T15:09:56.375Z,6.47
2018-09-05T15:12:23.544Z,5.90
2018-09-05T15:14:50.700Z,6.80
2018-09-05T15:17:17.781Z,5.53
2018-09-05T15:19:45.275Z,6.87
2018-09-05T15:22:12.327Z,7.13
2018-09-05T15:24:39.413Z,7.77
2018-09-05T15:27:06.556Z,7.53
2018-09-05T15:29:33.626Z,9.30
2018-09-05T15:32:00.672Z,7.00
2018-09-05T15:34:28.208Z,6.50
2018-09-05T15:36:55.305Z,6.67
2018-09-05T15:39:22.439Z,6.77
2018-09-05T15:41:49.954Z,9.73
2018-09-05T15:44:17.056Z,5.77
2018-09-05T15:46:44.258Z,8.70
2018-09-05T15:49:11.657Z,12.47
2018-09-05T15:51:38.833Z,8.53
2018-09-05T15:54:05.892Z,7.47
2018-09-05T15:56:33.451Z,7.20
2018-09-05T15:59:00.563Z,7.10
2018-09-05T16:01:27.728Z,5.70
2018-09-05T16:03:55.068Z,5.43
2018-09-05T16:06:22.166Z,5.90
2018-09-05T16:08:49.251Z,6.57
2018-09-05T16:11:16.617Z,7.57
2018-09-05T16:13:43.661Z,6.40
2018-09-05T16:16:10.765Z,6.90
2018-09-05T16:18:38.212Z,8.37
2018-09-05T16:21:05.321Z,8.20
2018-09-05T16:23:32.400Z,7.23
2018-09-05T16:25:59.833Z,6.77
2018-09-05T16:28:26.868Z,7.70
2018-09-05T16:30:53.985Z,8.50
2018-09-05T16:33:21.649Z,7.70
2018-09-05T16:35:48.801Z,7.83
2018-09-05T16:38:15.881Z,7.33
2018-09-05T16:40:43.762Z,7.23
2018-09-05T16:43:10.851Z,6.50
2018-09-05T16:45:37.927Z,7.50
2018-09-05T16:48:05.276Z,8.20
2018-09-05T16:50:32.354Z,8.07
2018-09-05T16:52:59.913Z,13.80
2018-09-05T16:55:27.079Z,7.87
2018-09-05T16:57:54.521Z,9.80
2018-09-05T17:00:21.642Z,8.63
2018-09-05T17:02:49.028Z,7.17
2018-09-05T17:05:16.109Z,7.50
2018-09-05T17:07:43.140Z,7.83
2018-09-05T17:10:15.035Z,6.63
2018-09-05T17:12:42.177Z,7.30
2018-09-05T17:15:09.436Z,8.20
2018-09-05T17:17:37.159Z,7.43
2018-09-05T17:20:04.790Z,7.47
2018-09-05T17:22:31.912Z,8.07
2018-09-05T17:24:59.000Z,8.17
2018-09-05T17:27:26.089Z,7.43
2018-09-05T17:29:53.198Z,7.17
2018-09-05T17:32:20.553Z,7.40
2018-09-05T17:34:47.709Z,7.53
2018-09-05T17:37:14.849Z,8.30
2018-09-05T17:39:42.211Z,8.67
2018-09-05T17:42:09.355Z,10.30
2018-09-05T17:44:36.409Z,11.70
2018-09-05T17:47:03.531Z,9.67
2018-09-05T17:49:30.795Z,11.77
2018-09-05T17:51:57.887Z,9.53
2018-09-05T17:54:25.350Z,13.57
2018-09-05T17:56:52.674Z,11.00
2018-09-05T17:59:19.833Z,11.77
2018-09-05T18:01:47.126Z,11.80
2018-09-05T18:04:16.792Z,12.87
2018-09-05T18:06:43.873Z,11.20
2018-09-05T18:09:11.532Z,12.10
2018-09-05T18:11:38.687Z,10.93
2018-09-05T18:14:05.836Z,11.13
2018-09-05T18:16:33.028Z,10.93
2018-09-05T18:19:00.928Z,12.00
2018-09-05T18:21:28.262Z,11.77
2018-09-05T18:23:55.847Z,10.27
2018-09-05T18:26:22.999Z,13.50
2018-09-05T18:28:50.010Z,10.50
2018-09-05T18:31:17.008Z,12.33
2018-09-05T18:33:44.082Z,11.33
2018-09-05T18:36:11.055Z,11.17
2018-09-05T18:38:38.356Z,10.60
2018-09-05T18:41:05.359Z,10.97
2018-09-05T18:43:32.319Z,9.80
2018-09-05T18:45:59.660Z,9.83
2018-09-05T18:48:26.809Z,10.73
2018-09-05T18:50:53.800Z,13.73
2018-09-05T18:53:21.126Z,9.93
2018-09-05T18:55:48.178Z,9.97
2018-09-05T18:58:15.183Z,9.90
2018-09-05T19:00:42.582Z,9.60
2018-09-05T19:03:09.981Z,8.90
2018-09-05T19:05:36.950Z,8.50
2018-09-05T19:08:04.733Z,9.37
2018-09-05T19:10:31.799Z,8.90
2018-09-05T19:12:58.839Z,8.00
2018-09-05T19:15:26.019Z,8.70
2018-09-05T19:17:53.034Z,8.00
2018-09-05T19:20:20.336Z,8.03
2018-09-05T19:22:47.597Z,8.60
2018-09-05T19:25:14.691Z,8.13
2018-09-05T19:27:41.727Z,8.83
2018-09-05T19:30:09.038Z,9.07
2018-09-05T19:32:36.122Z,8.80
2018-09-05T19:35:03.132Z,9.80
2018-09-05T19:37:30.196Z,10.93
2018-09-05T19:39:57.219Z,8.40
2018-09-05T19:42:24.322Z,14.13
2018-09-05T19:44:51.891Z,10.73
2018-09-05T19:47:18.901Z,9.47
2018-09-05T19:49:45.918Z,12.00
2018-09-05T19:52:14.336Z,10.40
2018-09-05T19:54:41.618Z,9.53
2018-09-05T19:57:08.759Z,14.70
2018-09-05T19:59:35.820Z,10.33
2018-09-05T20:02:02.869Z,14.20
2018-09-05T20:04:29.857Z,9.80
2018-09-05T20:06:56.837Z,10.63
2018-09-05T20:09:23.828Z,10.10
2018-09-05T20:11:50.809Z,12.50
2018-09-05T20:14:18.091Z,11.17
2018-09-05T20:16:45.148Z,9.83
2018-09-05T20:19:12.106Z,8.77
2018-09-05T20:21:39.542Z,9.03
2018-09-05T20:24:06.532Z,9.23
2018-09-05T20:26:33.920Z,8.20
2018-09-05T20:29:01.002Z,14.63
2018-09-05T20:31:27.937Z,8.60
2018-09-05T20:33:54.885Z,10.07
2018-09-05T20:36:22.162Z,9.80
2018-09-05T20:38:49.333Z,9.47
2018-09-05T20:41:16.279Z,8.47
2018-09-05T20:43:43.840Z,9.33
2018-09-05T20:46:10.901Z,14.87
2018-09-05T20:48:38.002Z,10.00
2018-09-05T20:51:05.011Z,10.40
2018-09-05T20:53:32.024Z,13.70
2018-09-05T20:55:59.008Z,9.80
2018-09-05T20:58:26.275Z,8.87
2018-09-05T21:00:53.264Z,9.30
2018-09-05T21:03:20.212Z,8.40
2018-09-05T21:05:47.526Z,9.47
2018-09-05T21:08:14.650Z,10.13
2018-09-05T21:10:41.596Z,8.80
2018-09-05T21:13:08.890Z,9.57
2018-09-05T21:15:35.804Z,10.30
2018-09-05T21:18:02.738Z,10.20
2018-09-05T21:20:29.893Z,11.40
2018-09-05T21:22:56.880Z,10.20
2018-09-05T21:25:23.842Z,10.03
2018-09-05T21:27:51.077Z,10.00
2018-09-05T21:30:18.089Z,11.33
2018-09-05T21:32:45.025Z,10.43
2018-09-05T21:35:12.339Z,10.80
2018-09-05T21:37:39.587Z,11.70
2018-09-05T21:40:06.691Z,12.40
2018-09-05T21:42:33.669Z,10.43
2018-09-05T21:45:00.739Z,9.20
2018-09-05T21:47:27.763Z,10.00
2018-09-05T21:49:55.127Z,9.90
2018-09-05T21:52:22.138Z,13.27
2018-09-05T21:54:50.024Z,11.13
2018-09-05T21:57:17.359Z,11.03
2018-09-05T21:59:44.334Z,12.53
2018-09-05T22:02:11.306Z,10.00
2018-09-05T22:04:38.576Z,9.87
2018-09-05T22:07:05.554Z,10.57
2018-09-05T22:09:32.558Z,11.10
2018-09-05T22:11:59.775Z,9.17
2018-09-05T22:14:26.772Z,10.30
2018-09-05T22:16:53.803Z,10.50
2018-09-05T22:19:21.016Z,9.50
2018-09-05T22:21:47.950Z,10.13
2018-09-05T22:24:15.002Z,9.50
2018-09-05T22:26:42.358Z,10.43
2018-09-05T22:29:09.333Z,11.30
2018-09-05T22:31:36.337Z,10.10
2018-09-05T22:34:03.359Z,10.70
2018-09-05T22:36:30.318Z,10.73
2018-09-05T22:38:57.317Z,10.57
2018-09-05T22:41:24.634Z,10.37
2018-09-05T22:44:03.546Z,11.13
2018-09-05T22:46:42.553Z,10.60
2018-09-05T22:51:52.792Z,10.80
2018-09-05T22:54:36.403Z,10.07
2018-09-05T22:57:22.572Z,11.63
2018-09-05T23:00:03.948Z,10.90
2018-09-05T23:02:58.917Z,10.80
2018-09-05T23:05:35.968Z,11.10
2018-09-05T23:08:20.044Z,11.17
2018-09-05T23:10:58.763Z,13.27
2018-09-05T23:13:37.974Z,12.77
2018-09-05T23:16:16.870Z,11.03
2018-09-05T23:19:28.384Z,11.13
2018-09-05T23:21:55.528Z,11.00
2018-09-05T23:24:22.550Z,12.63
2018-09-05T23:26:49.864Z,11.60
2018-09-05T23:29:16.959Z,11.80
2018-09-05T23:31:43.918Z,11.20
2018-09-05T23:34:10.895Z,11.10
2018-09-05T23:36:37.849Z,12.20
2018-09-05T23:39:06.494Z,11.20
2018-09-05T23:41:33.718Z,11.40
2018-09-05T23:44:00.665Z,11.50
2018-09-05T23:46:27.588Z,11.53
2018-09-05T23:48:55.026Z,12.20
2018-09-05T23:51:22.137Z,12.17
2018-09-05T23:53:49.182Z,11.93
2018-09-05T23:56:16.133Z,11.73
2018-09-05T23:58:43.245Z,12.73
